sensor_id;sensor_type;location;lat;lon;timestamp;pressure;altitude;pressure_sealevel;temperature;humidity
68456;BME280;55437;55.046;38.838;2023-04-25T07:17:35;99783.44;;;25.60;27.51
68456;BME280;55437;55.046;38.838;2023-04-25T07:20:05;99780.47;;;26.17;27.02
68456;BME280;55437;55.046;38.838;2023-04-25T07:22:36;99781.28;;;26.18;27.44
68456;BME280;55437;55.046;38.838;2023-04-25T07:25:05;99788.44;;;25.53;27.93
68456;BME280;55437;55.046;38.838;2023-04-25T07:27:32;99787.97;;;25.30;28.34
68456;BME280;55437;55.046;38.838;2023-04-25T07:30:19;99784.38;;;25.68;27.86
68456;BME280;55437;55.046;38.838;2023-04-25T07:32:50;99791.47;;;25.86;27.87
68456;BME280;55437;55.046;38.838;2023-04-25T07:35:18;99774.13;;;25.93;27.94
68456;BME280;55437;55.046;38.838;2023-04-25T07:37:47;99780.81;;;25.23;28.83
68456;BME280;55437;55.046;38.838;2023-04-25T07:40:27;99776.94;;;25.54;28.52
68456;BME280;55437;55.046;38.838;2023-04-25T07:43:03;99774.00;;;26.12;27.94
68456;BME280;55437;55.046;38.838;2023-04-25T07:45:38;99772.19;;;25.67;28.13
68456;BME280;55437;55.046;38.838;2023-04-25T07:48:31;99784.97;;;26.07;27.80
68456;BME280;55437;55.046;38.838;2023-04-25T07:51:15;99788.13;;;26.11;27.76
68456;BME280;55437;55.046;38.838;2023-04-25T07:53:42;99781.66;;;26.05;27.58
68456;BME280;55437;55.046;38.838;2023-04-25T07:56:15;99783.28;;;25.24;28.68
68456;BME280;55437;55.046;38.838;2023-04-25T07:58:45;99786.47;;;25.28;28.83
68456;BME280;55437;55.046;38.838;2023-04-25T08:01:13;99781.75;;;24.56;29.43
68456;BME280;55437;55.046;38.838;2023-04-25T08:03:51;99781.25;;;23.93;30.12
68456;BME280;55437;55.046;38.838;2023-04-25T08:06:24;99780.25;;;24.24;29.75
68456;BME280;55437;55.046;38.838;2023-04-25T08:09:28;99782.34;;;23.81;30.37
68456;BME280;55437;55.046;38.838;2023-04-25T08:12:07;99778.88;;;23.40;30.75
68456;BME280;55437;55.046;38.838;2023-04-25T08:14:35;99780.84;;;22.96;31.26
68456;BME280;55437;55.046;38.838;2023-04-25T08:17:07;99775.41;;;23.30;31.10
68456;BME280;55437;55.046;38.838;2023-04-25T08:19:43;99785.13;;;23.18;31.60
68456;BME280;55437;55.046;38.838;2023-04-25T08:22:16;99784.63;;;22.83;31.89
68456;BME280;55437;55.046;38.838;2023-04-25T08:24:50;99770.53;;;22.21;32.49
68456;BME280;55437;55.046;38.838;2023-04-25T08:27:18;99771.88;;;22.05;32.72
68456;BME280;55437;55.046;38.838;2023-04-25T08:29:44;99766.22;;;22.52;31.74
68456;BME280;55437;55.046;38.838;2023-04-25T08:32:40;99758.66;;;23.21;31.07
68456;BME280;55437;55.046;38.838;2023-04-25T08:35:32;99752.75;;;23.59;30.37
68456;BME280;55437;55.046;38.838;2023-04-25T08:37:59;99750.28;;;23.67;30.29
68456;BME280;55437;55.046;38.838;2023-04-25T08:40:27;99746.31;;;23.43;30.82
68456;BME280;55437;55.046;38.838;2023-04-25T08:43:07;99738.00;;;23.28;31.50
68456;BME280;55437;55.046;38.838;2023-04-25T08:45:59;99740.88;;;22.94;31.87
68456;BME280;55437;55.046;38.838;2023-04-25T08:48:40;99735.13;;;23.01;31.54
68456;BME280;55437;55.046;38.838;2023-04-25T08:51:32;99731.13;;;22.76;31.77
68456;BME280;55437;55.046;38.838;2023-04-25T08:54:06;99731.13;;;22.55;31.97
68456;BME280;55437;55.046;38.838;2023-04-25T08:56:34;99729.22;;;22.57;31.92
68456;BME280;55437;55.046;38.838;2023-04-25T08:59:02;99717.94;;;22.24;32.41
68456;BME280;55437;55.046;38.838;2023-04-25T09:01:28;99706.22;;;21.65;33.05
68456;BME280;55437;55.046;38.838;2023-04-25T09:03:57;99710.56;;;21.43;33.35
68456;BME280;55437;55.046;38.838;2023-04-25T09:06:23;99706.41;;;21.41;33.55
68456;BME280;55437;55.046;38.838;2023-04-25T09:08:50;99705.69;;;21.28;33.46
68456;BME280;55437;55.046;38.838;2023-04-25T09:11:16;99705.81;;;21.37;33.34
68456;BME280;55437;55.046;38.838;2023-04-25T09:13:43;99694.78;;;21.11;33.80
68456;BME280;55437;55.046;38.838;2023-04-25T09:16:22;99699.72;;;20.81;34.58
68456;BME280;55437;55.046;38.838;2023-04-25T09:19:21;99697.97;;;20.35;35.48
68456;BME280;55437;55.046;38.838;2023-04-25T09:21:49;99687.06;;;20.41;35.31
68456;BME280;55437;55.046;38.838;2023-04-25T09:24:16;99685.38;;;20.75;34.95
68456;BME280;55437;55.046;38.838;2023-04-25T09:26:41;99680.28;;;20.85;34.68
68456;BME280;55437;55.046;38.838;2023-04-25T09:29:09;99671.63;;;20.84;34.52
68456;BME280;55437;55.046;38.838;2023-04-25T09:31:39;99666.38;;;20.62;34.67
68456;BME280;55437;55.046;38.838;2023-04-25T09:34:08;99669.13;;;20.72;34.55
68456;BME280;55437;55.046;38.838;2023-04-25T09:36:42;99663.78;;;20.84;34.15
68456;BME280;55437;55.046;38.838;2023-04-25T09:39:23;99654.75;;;20.66;34.60
68456;BME280;55437;55.046;38.838;2023-04-25T09:42:03;99659.19;;;20.88;33.82
68456;BME280;55437;55.046;38.838;2023-04-25T09:44:32;99654.28;;;20.95;33.69
68456;BME280;55437;55.046;38.838;2023-04-25T09:46:59;99654.63;;;21.01;33.67
68456;BME280;55437;55.046;38.838;2023-04-25T09:53:03;99651.59;;;21.18;33.56
68456;BME280;55437;55.046;38.838;2023-04-25T09:55:47;99646.25;;;21.20;33.72
68456;BME280;55437;55.046;38.838;2023-04-25T10:01:30;99651.44;;;21.31;33.40
68456;BME280;55437;55.046;38.838;2023-04-25T10:04:10;99641.13;;;21.18;33.65
68456;BME280;55437;55.046;38.838;2023-04-25T10:06:49;99639.69;;;21.14;33.66
68456;BME280;55437;55.046;38.838;2023-04-25T10:09:25;99632.13;;;21.23;33.68
68456;BME280;55437;55.046;38.838;2023-04-25T10:11:52;99630.31;;;21.34;33.49
68456;BME280;55437;55.046;38.838;2023-04-25T10:14:20;99630.03;;;21.48;33.27
68456;BME280;55437;55.046;38.838;2023-04-25T10:16:48;99631.16;;;21.35;33.57
68456;BME280;55437;55.046;38.838;2023-04-25T10:19:15;99622.94;;;21.28;33.62
68456;BME280;55437;55.046;38.838;2023-04-25T10:22:10;99625.84;;;21.25;33.91
68456;BME280;55437;55.046;38.838;2023-04-25T10:24:39;99607.81;;;21.54;33.69
68456;BME280;55437;55.046;38.838;2023-04-25T10:27:31;99610.09;;;21.79;33.52
68456;BME280;55437;55.046;38.838;2023-04-25T10:30:02;99607.50;;;22.00;33.04
68456;BME280;55437;55.046;38.838;2023-04-25T10:32:32;99617.22;;;21.77;32.92
68456;BME280;55437;55.046;38.838;2023-04-25T10:35:16;99601.34;;;21.37;33.32
68456;BME280;55437;55.046;38.838;2023-04-25T10:38:09;99594.47;;;21.36;33.78
68456;BME280;55437;55.046;38.838;2023-04-25T10:40:37;99596.31;;;21.45;33.41
68456;BME280;55437;55.046;38.838;2023-04-25T10:46:02;99578.31;;;21.31;33.53
68456;BME280;55437;55.046;38.838;2023-04-25T10:48:30;99587.72;;;21.23;33.44
68456;BME280;55437;55.046;38.838;2023-04-25T10:51:10;99582.50;;;21.23;33.23
68456;BME280;55437;55.046;38.838;2023-04-25T10:53:36;99572.78;;;21.25;33.27
68456;BME280;55437;55.046;38.838;2023-04-25T10:56:19;99563.16;;;21.03;33.11
68456;BME280;55437;55.046;38.838;2023-04-25T10:58:47;99565.41;;;21.07;33.24
68456;BME280;55437;55.046;38.838;2023-04-25T11:01:43;99564.47;;;21.08;33.15
68456;BME280;55437;55.046;38.838;2023-04-25T11:04:29;99559.84;;;21.23;32.83
68456;BME280;55437;55.046;38.838;2023-04-25T11:09:39;99554.47;;;21.56;32.39
68456;BME280;55437;55.046;38.838;2023-04-25T11:12:09;99550.69;;;21.49;32.53
68456;BME280;55437;55.046;38.838;2023-04-25T11:14:41;99541.75;;;21.31;32.56
68456;BME280;55437;55.046;38.838;2023-04-25T11:17:07;99534.81;;;21.41;32.55
68456;BME280;55437;55.046;38.838;2023-04-25T11:19:34;99531.84;;;21.46;32.60
68456;BME280;55437;55.046;38.838;2023-04-25T11:22:01;99531.03;;;21.45;32.79
68456;BME280;55437;55.046;38.838;2023-04-25T11:27:53;99519.09;;;21.52;32.27
68456;BME280;55437;55.046;38.838;2023-04-25T11:30:20;99513.38;;;21.59;32.50
68456;BME280;55437;55.046;38.838;2023-04-25T11:32:47;99512.19;;;21.83;32.45
68456;BME280;55437;55.046;38.838;2023-04-25T11:35:14;99493.09;;;22.13;32.27
68456;BME280;55437;55.046;38.838;2023-04-25T11:37:44;99499.56;;;22.09;32.01
68456;BME280;55437;55.046;38.838;2023-04-25T11:40:11;99487.44;;;22.08;32.36
68456;BME280;55437;55.046;38.838;2023-04-25T11:42:39;99498.41;;;21.81;32.33
68456;BME280;55437;55.046;38.838;2023-04-25T11:45:07;99479.78;;;21.75;32.43
68456;BME280;55437;55.046;38.838;2023-04-25T11:47:33;99482.03;;;21.59;32.68
68456;BME280;55437;55.046;38.838;2023-04-25T11:50:00;99475.28;;;21.35;33.12
68456;BME280;55437;55.046;38.838;2023-04-25T11:52:39;99487.16;;;21.28;33.12
68456;BME280;55437;55.046;38.838;2023-04-25T11:55:12;99472.50;;;21.05;33.49
68456;BME280;55437;55.046;38.838;2023-04-25T11:58:06;99459.56;;;21.03;33.64
68456;BME280;55437;55.046;38.838;2023-04-25T12:00:35;99458.09;;;20.78;34.46
68456;BME280;55437;55.046;38.838;2023-04-25T12:03:02;99455.78;;;20.64;34.58
68456;BME280;55437;55.046;38.838;2023-04-25T12:05:30;99453.44;;;20.50;34.73
68456;BME280;55437;55.046;38.838;2023-04-25T12:07:57;99453.28;;;20.29;35.29
68456;BME280;55437;55.046;38.838;2023-04-25T12:10:25;99447.50;;;20.03;35.73
68456;BME280;55437;55.046;38.838;2023-04-25T12:12:53;99445.72;;;19.93;35.97
68456;BME280;55437;55.046;38.838;2023-04-25T12:15:24;99441.91;;;19.86;36.21
68456;BME280;55437;55.046;38.838;2023-04-25T12:18:10;99435.16;;;19.83;36.28
68456;BME280;55437;55.046;38.838;2023-04-25T12:20:36;99432.69;;;19.82;36.57
68456;BME280;55437;55.046;38.838;2023-04-25T12:23:05;99425.44;;;19.74;36.47
68456;BME280;55437;55.046;38.838;2023-04-25T12:25:41;99414.81;;;19.77;36.53
68456;BME280;55437;55.046;38.838;2023-04-25T12:28:16;99406.03;;;19.78;36.77
68456;BME280;55437;55.046;38.838;2023-04-25T12:31:04;99410.31;;;19.90;36.80
68456;BME280;55437;55.046;38.838;2023-04-25T12:33:36;99397.63;;;19.97;36.96
68456;BME280;55437;55.046;38.838;2023-04-25T12:36:28;99403.66;;;19.86;37.10
68456;BME280;55437;55.046;38.838;2023-04-25T12:38:55;99393.03;;;19.78;37.06
68456;BME280;55437;55.046;38.838;2023-04-25T12:41:21;99390.16;;;19.59;37.53
68456;BME280;55437;55.046;38.838;2023-04-25T12:43:48;99384.19;;;19.46;37.87
68456;BME280;55437;55.046;38.838;2023-04-25T12:46:14;99379.34;;;19.41;37.91
68456;BME280;55437;55.046;38.838;2023-04-25T12:48:40;99381.34;;;19.37;37.84
68456;BME280;55437;55.046;38.838;2023-04-25T12:51:06;99376.34;;;19.34;38.15
68456;BME280;55437;55.046;38.838;2023-04-25T12:53:32;99378.84;;;19.36;38.41
68456;BME280;55437;55.046;38.838;2023-04-25T12:55:58;99371.84;;;19.25;38.48
68456;BME280;55437;55.046;38.838;2023-04-25T12:58:24;99362.25;;;19.26;38.38
68456;BME280;55437;55.046;38.838;2023-04-25T13:00:52;99361.22;;;19.28;38.55
68456;BME280;55437;55.046;38.838;2023-04-25T13:03:18;99361.22;;;19.28;38.72
68456;BME280;55437;55.046;38.838;2023-04-25T13:05:44;99362.75;;;19.31;38.79
68456;BME280;55437;55.046;38.838;2023-04-25T13:08:10;99348.53;;;19.35;39.27
68456;BME280;55437;55.046;38.838;2023-04-25T13:10:37;99346.03;;;19.22;39.38
68456;BME280;55437;55.046;38.838;2023-04-25T13:13:04;99335.25;;;19.16;39.51
68456;BME280;55437;55.046;38.838;2023-04-25T13:15:30;99329.69;;;19.09;39.96
68456;BME280;55437;55.046;38.838;2023-04-25T13:17:56;99320.69;;;19.02;40.13
68456;BME280;55437;55.046;38.838;2023-04-25T13:20:22;99315.16;;;19.06;39.97
68456;BME280;55437;55.046;38.838;2023-04-25T13:22:48;99325.88;;;19.02;40.14
68456;BME280;55437;55.046;38.838;2023-04-25T13:25:14;99312.13;;;18.89;40.30
68456;BME280;55437;55.046;38.838;2023-04-25T13:27:41;99320.91;;;18.99;40.08
68456;BME280;55437;55.046;38.838;2023-04-25T13:30:10;99315.78;;;18.86;40.55
68456;BME280;55437;55.046;38.838;2023-04-25T13:33:01;99324.63;;;18.84;40.76
68456;BME280;55437;55.046;38.838;2023-04-25T13:35:35;99320.22;;;18.73;41.59
68456;BME280;55437;55.046;38.838;2023-04-25T13:38:02;99317.88;;;18.70;41.63
68456;BME280;55437;55.046;38.838;2023-04-25T13:40:28;99321.84;;;18.63;41.88
68456;BME280;55437;55.046;38.838;2023-04-25T13:42:56;99323.38;;;18.42;42.38
68456;BME280;55437;55.046;38.838;2023-04-25T13:45:24;99309.06;;;18.36;42.24
68456;BME280;55437;55.046;38.838;2023-04-25T13:47:50;99307.34;;;18.24;42.78
68456;BME280;55437;55.046;38.838;2023-04-25T13:50:16;99312.31;;;18.27;42.45
68456;BME280;55437;55.046;38.838;2023-04-25T13:52:42;99311.44;;;18.15;42.58
68456;BME280;55437;55.046;38.838;2023-04-25T13:55:10;99296.72;;;18.03;43.04
68456;BME280;55437;55.046;38.838;2023-04-25T13:57:37;99304.13;;;17.96;43.15
68456;BME280;55437;55.046;38.838;2023-04-25T14:00:04;99300.91;;;17.93;42.73
68456;BME280;55437;55.046;38.838;2023-04-25T14:02:36;99291.47;;;17.92;42.54
68456;BME280;55437;55.046;38.838;2023-04-25T14:05:03;99293.00;;;17.94;42.14
68456;BME280;55437;55.046;38.838;2023-04-25T14:07:31;99289.06;;;17.89;42.26
68456;BME280;55437;55.046;38.838;2023-04-25T14:10:24;99295.53;;;17.83;41.86
68456;BME280;55437;55.046;38.838;2023-04-25T14:12:55;99301.50;;;17.73;41.05
68456;BME280;55437;55.046;38.838;2023-04-25T14:15:21;99289.44;;;17.72;40.75
68456;BME280;55437;55.046;38.838;2023-04-25T14:17:47;99292.13;;;17.57;41.04
68456;BME280;55437;55.046;38.838;2023-04-25T14:20:13;99282.16;;;17.64;40.98
68456;BME280;55437;55.046;38.838;2023-04-25T14:22:47;99289.44;;;17.59;41.40
68456;BME280;55437;55.046;38.838;2023-04-25T14:25:13;99295.38;;;17.48;42.13
68456;BME280;55437;55.046;38.838;2023-04-25T14:27:39;99290.00;;;17.26;42.65
68456;BME280;55437;55.046;38.838;2023-04-25T14:30:06;99299.00;;;17.20;42.80
68456;BME280;55437;55.046;38.838;2023-04-25T14:32:35;99274.09;;;17.18;42.75
68456;BME280;55437;55.046;38.838;2023-04-25T14:35:01;99272.53;;;17.15;42.95
68456;BME280;55437;55.046;38.838;2023-04-25T14:37:29;99261.56;;;17.24;42.71
68456;BME280;55437;55.046;38.838;2023-04-25T14:39:55;99268.06;;;17.17;43.01
68456;BME280;55437;55.046;38.838;2023-04-25T14:42:21;99286.13;;;17.19;43.04
68456;BME280;55437;55.046;38.838;2023-04-25T14:44:46;99267.03;;;17.07;43.54
68456;BME280;55437;55.046;38.838;2023-04-25T14:47:13;99257.16;;;16.74;44.39
68456;BME280;55437;55.046;38.838;2023-04-25T14:49:38;99264.50;;;16.68;44.79
68456;BME280;55437;55.046;38.838;2023-04-25T14:52:32;99251.50;;;16.55;45.45
68456;BME280;55437;55.046;38.838;2023-04-25T14:54:58;99250.44;;;16.45;45.81
68456;BME280;55437;55.046;38.838;2023-04-25T14:57:32;99235.34;;;16.51;45.85
68456;BME280;55437;55.046;38.838;2023-04-25T14:59:58;99229.13;;;16.54;45.88
68456;BME280;55437;55.046;38.838;2023-04-25T15:02:50;99224.44;;;16.59;45.92
68456;BME280;55437;55.046;38.838;2023-04-25T15:05:17;99219.94;;;16.63;46.26
68456;BME280;55437;55.046;38.838;2023-04-25T15:07:45;99218.53;;;16.57;46.73
68456;BME280;55437;55.046;38.838;2023-04-25T15:10:13;99218.13;;;16.50;46.99
68456;BME280;55437;55.046;38.838;2023-04-25T15:12:45;99212.59;;;16.42;47.52
68456;BME280;55437;55.046;38.838;2023-04-25T15:15:11;99211.16;;;16.38;47.99
68456;BME280;55437;55.046;38.838;2023-04-25T15:17:41;99209.75;;;16.20;48.91
68456;BME280;55437;55.046;38.838;2023-04-25T15:20:13;99206.41;;;16.05;49.87
68456;BME280;55437;55.046;38.838;2023-04-25T15:22:41;99201.44;;;16.02;50.09
68456;BME280;55437;55.046;38.838;2023-04-25T15:25:09;99199.63;;;15.90;50.84
68456;BME280;55437;55.046;38.838;2023-04-25T15:27:39;99200.53;;;15.89;51.13
68456;BME280;55437;55.046;38.838;2023-04-25T15:30:30;99196.88;;;15.79;51.73
68456;BME280;55437;55.046;38.838;2023-04-25T15:33:00;99194.75;;;15.71;52.37
68456;BME280;55437;55.046;38.838;2023-04-25T15:35:26;99190.09;;;15.64;52.96
68456;BME280;55437;55.046;38.838;2023-04-25T15:37:53;99186.38;;;15.54;53.58
68456;BME280;55437;55.046;38.838;2023-04-25T15:40:19;99201.16;;;15.52;53.89
68456;BME280;55437;55.046;38.838;2023-04-25T15:42:48;99183.47;;;15.31;55.26
68456;BME280;55437;55.046;38.838;2023-04-25T15:45:22;99182.56;;;15.18;56.29
68456;BME280;55437;55.046;38.838;2023-04-25T15:47:51;99180.06;;;15.02;57.25
68456;BME280;55437;55.046;38.838;2023-04-25T15:50:18;99184.50;;;15.00;57.46
68456;BME280;55437;55.046;38.838;2023-04-25T15:52:44;99168.81;;;14.89;58.43
68456;BME280;55437;55.046;38.838;2023-04-25T15:55:11;99171.38;;;14.75;59.13
68456;BME280;55437;55.046;38.838;2023-04-25T15:57:45;99168.50;;;14.65;59.92
68456;BME280;55437;55.046;38.838;2023-04-25T16:00:12;99174.78;;;14.47;61.11
68456;BME280;55437;55.046;38.838;2023-04-25T16:02:40;99168.53;;;14.35;61.90
68456;BME280;55437;55.046;38.838;2023-04-25T16:05:07;99169.47;;;14.34;62.13
68456;BME280;55437;55.046;38.838;2023-04-25T16:07:52;99165.97;;;14.35;62.59
68456;BME280;55437;55.046;38.838;2023-04-25T16:10:20;99165.34;;;14.16;64.08
68456;BME280;55437;55.046;38.838;2023-04-25T16:13:13;99158.28;;;14.04;64.67
68456;BME280;55437;55.046;38.838;2023-04-25T16:15:39;99161.97;;;14.00;65.28
68456;BME280;55437;55.046;38.838;2023-04-25T16:18:05;99161.69;;;14.04;65.78
68456;BME280;55437;55.046;38.838;2023-04-25T16:20:34;99167.16;;;14.00;65.96
68456;BME280;55437;55.046;38.838;2023-04-25T16:23:19;99167.22;;;13.98;66.37
68456;BME280;55437;55.046;38.838;2023-04-25T16:25:50;99158.91;;;13.78;67.71
68456;BME280;55437;55.046;38.838;2023-04-25T16:28:20;99158.38;;;13.73;68.17
68456;BME280;55437;55.046;38.838;2023-04-25T16:30:49;99161.63;;;13.60;68.89
68456;BME280;55437;55.046;38.838;2023-04-25T16:33:15;99161.09;;;13.54;69.64
68456;BME280;55437;55.046;38.838;2023-04-25T16:35:42;99162.44;;;13.45;70.07
68456;BME280;55437;55.046;38.838;2023-04-25T16:38:09;99154.47;;;13.34;71.07
68456;BME280;55437;55.046;38.838;2023-04-25T16:40:35;99159.69;;;13.32;71.45
68456;BME280;55437;55.046;38.838;2023-04-25T16:43:03;99155.88;;;13.24;72.17
68456;BME280;55437;55.046;38.838;2023-04-25T16:45:30;99149.88;;;13.23;71.90
68456;BME280;55437;55.046;38.838;2023-04-25T16:47:56;99152.09;;;13.14;72.55
68456;BME280;55437;55.046;38.838;2023-04-25T16:50:22;99156.66;;;13.09;73.05
68456;BME280;55437;55.046;38.838;2023-04-25T16:56:22;99144.75;;;13.06;73.26
68456;BME280;55437;55.046;38.838;2023-04-25T16:58:49;99139.03;;;13.01;73.41
68456;BME280;55437;55.046;38.838;2023-04-25T17:01:43;99138.97;;;13.03;73.47
68456;BME280;55437;55.046;38.838;2023-04-25T17:04:10;99143.84;;;12.91;73.96
68456;BME280;55437;55.046;38.838;2023-04-25T17:06:36;99138.78;;;12.90;74.35
68456;BME280;55437;55.046;38.838;2023-04-25T17:09:05;99133.00;;;12.85;74.36
68456;BME280;55437;55.046;38.838;2023-04-25T17:11:32;99134.91;;;12.81;74.69
68456;BME280;55437;55.046;38.838;2023-04-25T17:14:00;99126.28;;;12.82;74.82
68456;BME280;55437;55.046;38.838;2023-04-25T17:16:35;99124.19;;;12.73;75.35
68456;BME280;55437;55.046;38.838;2023-04-25T17:19:28;99127.09;;;12.67;75.97
68456;BME280;55437;55.046;38.838;2023-04-25T17:22:22;99116.47;;;12.56;76.16
68456;BME280;55437;55.046;38.838;2023-04-25T17:24:56;99116.97;;;12.47;77.24
68456;BME280;55437;55.046;38.838;2023-04-25T17:27:26;99112.50;;;12.50;77.36
68456;BME280;55437;55.046;38.838;2023-04-25T17:32:38;99108.59;;;12.43;78.11
68456;BME280;55437;55.046;38.838;2023-04-25T17:35:05;99104.56;;;12.38;78.41
68456;BME280;55437;55.046;38.838;2023-04-25T17:37:31;99093.75;;;12.31;78.48
68456;BME280;55437;55.046;38.838;2023-04-25T17:39:59;99100.72;;;12.29;79.04
68456;BME280;55437;55.046;38.838;2023-04-25T17:42:45;99091.34;;;12.28;78.92
68456;BME280;55437;55.046;38.838;2023-04-25T17:46:01;99088.84;;;12.26;79.40
68456;BME280;55437;55.046;38.838;2023-04-25T17:48:27;99087.31;;;12.22;79.29
68456;BME280;55437;55.046;38.838;2023-04-25T17:50:55;99081.25;;;12.23;79.71
68456;BME280;55437;55.046;38.838;2023-04-25T17:53:22;99077.94;;;12.21;79.85
68456;BME280;55437;55.046;38.838;2023-04-25T17:55:48;99069.28;;;12.22;80.10
68456;BME280;55437;55.046;38.838;2023-04-25T17:58:15;99071.28;;;12.17;80.07
68456;BME280;55437;55.046;38.838;2023-04-25T18:00:42;99072.06;;;12.19;80.04
68456;BME280;55437;55.046;38.838;2023-04-25T18:03:11;99063.31;;;12.22;80.17
68456;BME280;55437;55.046;38.838;2023-04-25T18:05:37;99060.53;;;12.26;79.87
68456;BME280;55437;55.046;38.838;2023-04-25T18:08:04;99060.19;;;12.33;79.84
68456;BME280;55437;55.046;38.838;2023-04-25T18:10:31;99060.94;;;12.35;79.78
68456;BME280;55437;55.046;38.838;2023-04-25T18:12:58;99058.56;;;12.32;79.73
68456;BME280;55437;55.046;38.838;2023-04-25T18:15:25;99051.75;;;12.31;79.75
68456;BME280;55437;55.046;38.838;2023-04-25T18:17:51;99040.28;;;12.36;79.90
68456;BME280;55437;55.046;38.838;2023-04-25T18:20:17;99038.53;;;12.37;79.62
68456;BME280;55437;55.046;38.838;2023-04-25T18:23:13;99031.78;;;12.34;80.05
68456;BME280;55437;55.046;38.838;2023-04-25T18:25:39;99025.66;;;12.37;79.84
68456;BME280;55437;55.046;38.838;2023-04-25T18:28:24;99032.34;;;12.41;79.76
68456;BME280;55437;55.046;38.838;2023-04-25T18:30:51;99023.84;;;12.39;79.67
68456;BME280;55437;55.046;38.838;2023-04-25T18:33:19;99016.13;;;12.39;79.65
68456;BME280;55437;55.046;38.838;2023-04-25T18:35:47;99018.47;;;12.43;79.70
68456;BME280;55437;55.046;38.838;2023-04-25T18:38:14;99010.75;;;12.43;79.70
68456;BME280;55437;55.046;38.838;2023-04-25T18:40:40;99009.91;;;12.43;79.62
68456;BME280;55437;55.046;38.838;2023-04-25T18:43:08;99001.25;;;12.44;79.56
68456;BME280;55437;55.046;38.838;2023-04-25T18:45:34;98985.09;;;12.42;79.80
68456;BME280;55437;55.046;38.838;2023-04-25T18:48:01;98990.94;;;12.44;79.81
68456;BME280;55437;55.046;38.838;2023-04-25T18:50:29;98990.78;;;12.47;79.92
68456;BME280;55437;55.046;38.838;2023-04-25T18:52:58;98978.53;;;12.52;79.30
68456;BME280;55437;55.046;38.838;2023-04-25T18:55:29;98977.25;;;12.59;79.20
68456;BME280;55437;55.046;38.838;2023-04-25T18:57:55;98976.19;;;12.63;78.92
68456;BME280;55437;55.046;38.838;2023-04-25T19:00:21;98965.31;;;12.58;79.29
68456;BME280;55437;55.046;38.838;2023-04-25T19:03:14;98968.22;;;12.52;79.28
68456;BME280;55437;55.046;38.838;2023-04-25T19:05:44;98970.03;;;12.50;79.85
68456;BME280;55437;55.046;38.838;2023-04-25T19:08:12;98954.69;;;12.48;79.11
68456;BME280;55437;55.046;38.838;2023-04-25T19:10:38;98952.19;;;12.47;79.54
68456;BME280;55437;55.046;38.838;2023-04-25T19:13:04;98954.75;;;12.47;79.36
68456;BME280;55437;55.046;38.838;2023-04-25T19:15:30;98946.47;;;12.42;79.58
68456;BME280;55437;55.046;38.838;2023-04-25T19:17:58;98939.47;;;12.44;79.17
68456;BME280;55437;55.046;38.838;2023-04-25T19:20:24;98939.16;;;12.50;79.39
68456;BME280;55437;55.046;38.838;2023-04-25T19:22:51;98937.47;;;12.49;79.51
68456;BME280;55437;55.046;38.838;2023-04-25T19:25:18;98929.34;;;12.56;79.06
68456;BME280;55437;55.046;38.838;2023-04-25T19:27:45;98923.47;;;12.54;79.09
68456;BME280;55437;55.046;38.838;2023-04-25T19:30:11;98930.84;;;12.60;79.12
68456;BME280;55437;55.046;38.838;2023-04-25T19:32:39;98921.03;;;12.67;78.61
68456;BME280;55437;55.046;38.838;2023-04-25T19:35:06;98926.84;;;12.71;78.72
68456;BME280;55437;55.046;38.838;2023-04-25T19:37:36;98921.69;;;12.71;78.73
68456;BME280;55437;55.046;38.838;2023-04-25T19:40:03;98904.50;;;12.71;78.56
68456;BME280;55437;55.046;38.838;2023-04-25T19:43:22;98903.41;;;12.75;78.68
68456;BME280;55437;55.046;38.838;2023-04-25T19:45:50;98907.06;;;12.71;78.62
68456;BME280;55437;55.046;38.838;2023-04-25T19:48:17;98897.75;;;12.69;78.82
68456;BME280;55437;55.046;38.838;2023-04-25T19:50:45;98893.34;;;12.71;78.67
68456;BME280;55437;55.046;38.838;2023-04-25T19:53:11;98894.78;;;12.76;78.60
68456;BME280;55437;55.046;38.838;2023-04-25T19:55:37;98890.28;;;12.80;78.56
68456;BME280;55437;55.046;38.838;2023-04-25T19:58:03;98886.69;;;12.82;78.41
68456;BME280;55437;55.046;38.838;2023-04-25T20:00:34;98873.06;;;12.80;78.21
68456;BME280;55437;55.046;38.838;2023-04-25T20:03:02;98877.88;;;12.86;78.30
68456;BME280;55437;55.046;38.838;2023-04-25T20:05:28;98868.50;;;12.85;78.04
68456;BME280;55437;55.046;38.838;2023-04-25T20:07:59;98861.66;;;12.84;78.00
68456;BME280;55437;55.046;38.838;2023-04-25T20:10:24;98858.94;;;12.87;78.15
68456;BME280;55437;55.046;38.838;2023-04-25T20:12:51;98857.03;;;12.91;77.81
68456;BME280;55437;55.046;38.838;2023-04-25T20:15:26;98855.28;;;12.91;77.95
68456;BME280;55437;55.046;38.838;2023-04-25T20:20:46;98844.22;;;12.89;77.77
68456;BME280;55437;55.046;38.838;2023-04-25T20:23:14;98844.84;;;12.93;77.72
68456;BME280;55437;55.046;38.838;2023-04-25T20:25:41;98839.91;;;12.90;77.58
68456;BME280;55437;55.046;38.838;2023-04-25T20:28:09;98840.66;;;12.92;77.64
68456;BME280;55437;55.046;38.838;2023-04-25T20:30:35;98835.75;;;12.87;77.64
68456;BME280;55437;55.046;38.838;2023-04-25T20:33:06;98823.59;;;12.89;77.48
68456;BME280;55437;55.046;38.838;2023-04-25T20:35:39;98833.16;;;12.87;77.79
68456;BME280;55437;55.046;38.838;2023-04-25T20:38:08;98828.00;;;12.87;77.53
68456;BME280;55437;55.046;38.838;2023-04-25T20:40:34;98831.34;;;12.89;77.59
68456;BME280;55437;55.046;38.838;2023-04-25T20:43:03;98829.59;;;12.90;77.66
68456;BME280;55437;55.046;38.838;2023-04-25T20:45:30;98830.59;;;12.87;77.91
68456;BME280;55437;55.046;38.838;2023-04-25T20:47:58;98813.56;;;12.85;77.82
68456;BME280;55437;55.046;38.838;2023-04-25T20:50:25;98811.81;;;12.85;77.66
68456;BME280;55437;55.046;38.838;2023-04-25T20:52:55;98802.88;;;12.77;78.00